sensor_id;sensor_type;location;lat;lon;timestamp;pressure;altitude;pressure_sealevel;temperature;humidity
76819;BME280;65772;51.096;17.006;2023-04-15T00:01:21;98898.13;;;14.21;68.07
76819;BME280;65772;51.096;17.006;2023-04-15T00:03:53;98894.50;;;14.23;68.02
76819;BME280;65772;51.096;17.006;2023-04-15T00:06:24;98885.05;;;14.25;67.99
76819;BME280;65772;51.096;17.006;2023-04-15T00:08:54;98880.59;;;14.25;67.98
76819;BME280;65772;51.096;17.006;2023-04-15T00:11:25;98881.27;;;14.26;67.91
76819;BME280;65772;51.096;17.006;2023-04-15T00:13:55;98879.38;;;14.26;67.87
76819;BME280;65772;51.096;17.006;2023-04-15T00:16:26;98883.49;;;14.27;67.90
76819;BME280;65772;51.096;17.006;2023-04-15T00:18:57;98883.84;;;14.27;67.76
76819;BME280;65772;51.096;17.006;2023-04-15T00:21:28;98883.48;;;14.26;67.68
76819;BME280;65772;51.096;17.006;2023-04-15T00:23:59;98884.02;;;14.26;67.70
76819;BME280;65772;51.096;17.006;2023-04-15T00:26:30;98883.50;;;14.25;67.68
76819;BME280;65772;51.096;17.006;2023-04-15T00:29:01;98882.45;;;14.28;67.84
76819;BME280;65772;51.096;17.006;2023-04-15T00:31:31;98882.42;;;14.31;67.57
76819;BME280;65772;51.096;17.006;2023-04-15T00:34:02;98885.85;;;14.31;67.54
76819;BME280;65772;51.096;17.006;2023-04-15T00:36:32;98886.52;;;14.32;67.56
76819;BME280;65772;51.096;17.006;2023-04-15T00:39:04;98882.75;;;14.32;67.56
76819;BME280;65772;51.096;17.006;2023-04-15T00:41:34;98880.85;;;14.32;67.40
76819;BME280;65772;51.096;17.006;2023-04-15T00:44:07;98882.06;;;14.32;67.41
76819;BME280;65772;51.096;17.006;2023-04-15T00:46:39;98881.36;;;14.32;67.34
76819;BME280;65772;51.096;17.006;2023-04-15T00:49:10;98883.11;;;14.31;67.24
76819;BME280;65772;51.096;17.006;2023-04-15T00:51:41;98879.54;;;14.29;67.17
76819;BME280;65772;51.096;17.006;2023-04-15T00:54:11;98886.40;;;14.27;67.10
76819;BME280;65772;51.096;17.006;2023-04-15T00:56:42;98894.48;;;14.26;67.08
76819;BME280;65772;51.096;17.006;2023-04-15T00:59:14;98896.89;;;14.25;67.09
76819;BME280;65772;51.096;17.006;2023-04-15T01:01:46;98896.35;;;14.29;66.96
76819;BME280;65772;51.096;17.006;2023-04-15T01:04:17;98894.77;;;14.32;66.93
76819;BME280;65772;51.096;17.006;2023-04-15T01:06:48;98893.21;;;14.33;66.82
76819;BME280;65772;51.096;17.006;2023-04-15T01:09:19;98891.14;;;14.33;66.90
76819;BME280;65772;51.096;17.006;2023-04-15T01:11:52;98891.14;;;14.34;66.86
76819;BME280;65772;51.096;17.006;2023-04-15T01:14:23;98892.00;;;14.35;66.82
76819;BME280;65772;51.096;17.006;2023-04-15T01:16:54;98890.79;;;14.35;66.88
76819;BME280;65772;51.096;17.006;2023-04-15T01:19:25;98885.99;;;14.34;66.69
76819;BME280;65772;51.096;17.006;2023-04-15T01:21:56;98889.26;;;14.33;66.59
76819;BME280;65772;51.096;17.006;2023-04-15T01:24:28;98886.34;;;14.32;66.62
76819;BME280;65772;51.096;17.006;2023-04-15T01:27:00;98885.35;;;14.30;66.69
76819;BME280;65772;51.096;17.006;2023-04-15T01:29:31;98889.48;;;14.28;66.62
76819;BME280;65772;51.096;17.006;2023-04-15T01:32:01;98887.61;;;14.27;66.59
76819;BME280;65772;51.096;17.006;2023-04-15T01:34:32;98887.93;;;14.30;66.65
76819;BME280;65772;51.096;17.006;2023-04-15T01:37:04;98885.14;;;14.32;66.45
76819;BME280;65772;51.096;17.006;2023-04-15T01:39:35;98893.73;;;14.33;66.56
76819;BME280;65772;51.096;17.006;2023-04-15T01:42:05;98901.45;;;14.33;66.54
76819;BME280;65772;51.096;17.006;2023-04-15T01:44:36;98899.38;;;14.34;66.55
76819;BME280;65772;51.096;17.006;2023-04-15T01:47:06;98899.21;;;14.34;66.54
76819;BME280;65772;51.096;17.006;2023-04-15T01:49:37;98896.13;;;14.34;66.35
76819;BME280;65772;51.096;17.006;2023-04-15T01:52:07;98899.90;;;14.34;66.27
76819;BME280;65772;51.096;17.006;2023-04-15T01:54:38;98902.14;;;14.33;66.26
76819;BME280;65772;51.096;17.006;2023-04-15T01:57:09;98897.16;;;14.32;66.33
76819;BME280;65772;51.096;17.006;2023-04-15T01:59:40;98896.30;;;14.32;66.28
76819;BME280;65772;51.096;17.006;2023-04-15T02:02:10;98900.77;;;14.31;66.27
76819;BME280;65772;51.096;17.006;2023-04-15T02:04:41;98904.93;;;14.29;66.27
76819;BME280;65772;51.096;17.006;2023-04-15T02:07:11;98904.71;;;14.32;66.25
76819;BME280;65772;51.096;17.006;2023-04-15T02:09:42;98906.59;;;14.35;66.27
76819;BME280;65772;51.096;17.006;2023-04-15T02:12:14;98903.32;;;14.35;66.16
76819;BME280;65772;51.096;17.006;2023-04-15T02:14:46;98910.18;;;14.36;66.20
76819;BME280;65772;51.096;17.006;2023-04-15T02:17:17;98911.03;;;14.38;66.21
76819;BME280;65772;51.096;17.006;2023-04-15T02:19:47;98912.25;;;14.39;66.21
76819;BME280;65772;51.096;17.006;2023-04-15T02:22:18;98912.59;;;14.38;66.17
76819;BME280;65772;51.096;17.006;2023-04-15T02:24:49;98912.06;;;14.39;66.31
76819;BME280;65772;51.096;17.006;2023-04-15T02:27:19;98915.67;;;14.38;66.17
76819;BME280;65772;51.096;17.006;2023-04-15T02:29:51;98918.08;;;14.36;66.08
76819;BME280;65772;51.096;17.006;2023-04-15T02:32:22;98922.20;;;14.35;66.20
76819;BME280;65772;51.096;17.006;2023-04-15T02:34:55;98922.05;;;14.33;66.25
76819;BME280;65772;51.096;17.006;2023-04-15T02:37:25;98925.83;;;14.31;66.13
76819;BME280;65772;51.096;17.006;2023-04-15T02:39:57;98927.02;;;14.34;66.13
76819;BME280;65772;51.096;17.006;2023-04-15T02:42:28;98927.36;;;14.36;66.09
76819;BME280;65772;51.096;17.006;2023-04-15T02:45:01;98925.64;;;14.36;66.19
76819;BME280;65772;51.096;17.006;2023-04-15T02:47:33;98923.05;;;14.36;66.20
76819;BME280;65772;51.096;17.006;2023-04-15T02:50:10;98926.49;;;14.37;65.98
76819;BME280;65772;51.096;17.006;2023-04-15T02:52:42;98923.57;;;14.37;66.02
76819;BME280;65772;51.096;17.006;2023-04-15T02:55:13;98929.58;;;14.36;65.99
76819;BME280;65772;51.096;17.006;2023-04-15T02:57:43;98935.94;;;14.36;65.97
76819;BME280;65772;51.096;17.006;2023-04-15T03:00:15;98934.39;;;14.35;65.85
76819;BME280;65772;51.096;17.006;2023-04-15T03:02:46;98932.34;;;14.34;65.90
76819;BME280;65772;51.096;17.006;2023-04-15T03:05:21;98933.04;;;14.32;65.89
76819;BME280;65772;51.096;17.006;2023-04-15T03:07:51;98935.98;;;14.31;65.76
76819;BME280;65772;51.096;17.006;2023-04-15T03:10:22;98941.51;;;14.27;65.71
76819;BME280;65772;51.096;17.006;2023-04-15T03:12:53;98949.08;;;14.26;65.50
76819;BME280;65772;51.096;17.006;2023-04-15T03:15:24;98953.54;;;14.23;65.25
76819;BME280;65772;51.096;17.006;2023-04-15T03:17:55;98964.55;;;14.20;64.98
76819;BME280;65772;51.096;17.006;2023-04-15T03:20:26;98973.68;;;14.18;64.72
76819;BME280;65772;51.096;17.006;2023-04-15T03:22:56;98979.36;;;14.16;64.69
76819;BME280;65772;51.096;17.006;2023-04-15T03:25:27;98974.91;;;14.13;64.62
76819;BME280;65772;51.096;17.006;2023-04-15T03:27:58;98974.73;;;14.12;64.39
76819;BME280;65772;51.096;17.006;2023-04-15T03:30:29;98984.36;;;14.10;64.34
76819;BME280;65772;51.096;17.006;2023-04-15T03:32:59;98989.33;;;14.11;64.11
76819;BME280;65772;51.096;17.006;2023-04-15T03:35:30;98988.80;;;14.13;63.81
76819;BME280;65772;51.096;17.006;2023-04-15T03:38:01;98986.06;;;14.13;63.62
76819;BME280;65772;51.096;17.006;2023-04-15T03:40:31;98983.48;;;14.13;63.34
76819;BME280;65772;51.096;17.006;2023-04-15T03:43:02;98988.30;;;14.13;63.29
76819;BME280;65772;51.096;17.006;2023-04-15T03:45:33;98995.16;;;14.12;62.99
76819;BME280;65772;51.096;17.006;2023-04-15T03:48:04;99000.31;;;14.11;62.78
76819;BME280;65772;51.096;17.006;2023-04-15T03:50:46;99007.89;;;14.09;62.64
76819;BME280;65772;51.096;17.006;2023-04-15T03:53:16;99016.83;;;14.07;62.42
76819;BME280;65772;51.096;17.006;2023-04-15T03:55:47;99026.11;;;14.04;62.46
76819;BME280;65772;51.096;17.006;2023-04-15T03:58:17;99024.40;;;14.02;62.30
76819;BME280;65772;51.096;17.006;2023-04-15T04:00:48;99030.42;;;14.00;62.12
76819;BME280;65772;51.096;17.006;2023-04-15T04:03:19;99034.91;;;13.97;61.89
76819;BME280;65772;51.096;17.006;2023-04-15T04:05:50;99030.80;;;13.93;61.73
76819;BME280;65772;51.096;17.006;2023-04-15T04:08:20;99033.73;;;13.89;61.64
76819;BME280;65772;51.096;17.006;2023-04-15T04:10:51;99042.17;;;13.85;61.39
76819;BME280;65772;51.096;17.006;2023-04-15T04:13:21;99051.09;;;13.82;61.15
76819;BME280;65772;51.096;17.006;2023-04-15T04:15:52;99048.54;;;13.79;60.97
76819;BME280;65772;51.096;17.006;2023-04-15T04:18:23;99055.92;;;13.76;60.64
76819;BME280;65772;51.096;17.006;2023-04-15T04:20:53;99059.73;;;13.73;60.46
76819;BME280;65772;51.096;17.006;2023-04-15T04:23:24;99059.38;;;13.70;60.17
76819;BME280;65772;51.096;17.006;2023-04-15T04:25:54;99056.64;;;13.67;59.99
76819;BME280;65772;51.096;17.006;2023-04-15T04:28:25;99061.48;;;13.63;59.76
76819;BME280;65772;51.096;17.006;2023-04-15T04:30:56;99063.02;;;13.59;59.65
76819;BME280;65772;51.096;17.006;2023-04-15T04:33:26;99070.59;;;13.54;59.47
76819;BME280;65772;51.096;17.006;2023-04-15T04:35:57;99077.29;;;13.51;59.36
76819;BME280;65772;51.096;17.006;2023-04-15T04:38:27;99084.14;;;13.48;59.47
76819;BME280;65772;51.096;17.006;2023-04-15T04:40:58;99091.69;;;13.46;59.49
76819;BME280;65772;51.096;17.006;2023-04-15T04:43:28;99101.83;;;13.45;59.22
76819;BME280;65772;51.096;17.006;2023-04-15T04:45:59;99106.11;;;13.43;59.02
76819;BME280;65772;51.096;17.006;2023-04-15T04:48:29;99107.48;;;13.40;58.91
76819;BME280;65772;51.096;17.006;2023-04-15T04:51:00;99106.11;;;13.37;58.43
76819;BME280;65772;51.096;17.006;2023-04-15T04:53:31;99105.96;;;13.34;57.79
76819;BME280;65772;51.096;17.006;2023-04-15T04:56:02;99104.42;;;13.32;57.49
76819;BME280;65772;51.096;17.006;2023-04-15T04:58:32;99109.39;;;13.31;57.65
76819;BME280;65772;51.096;17.006;2023-04-15T05:01:03;99111.78;;;13.30;57.43
76819;BME280;65772;51.096;17.006;2023-04-15T05:03:33;99111.78;;;13.28;57.21
76819;BME280;65772;51.096;17.006;2023-04-15T05:06:05;99112.13;;;13.25;56.99
76819;BME280;65772;51.096;17.006;2023-04-15T05:08:35;99112.50;;;13.22;56.55
76819;BME280;65772;51.096;17.006;2023-04-15T05:11:08;99107.34;;;13.16;56.26
76819;BME280;65772;51.096;17.006;2023-04-15T05:13:39;99108.70;;;13.13;56.20
76819;BME280;65772;51.096;17.006;2023-04-15T05:16:09;99112.64;;;13.10;56.18
76819;BME280;65772;51.096;17.006;2023-04-15T05:18:40;99118.64;;;13.10;56.14
76819;BME280;65772;51.096;17.006;2023-04-15T05:21:11;99123.44;;;13.11;56.08
76819;BME280;65772;51.096;17.006;2023-04-15T05:23:42;99121.21;;;13.11;55.89
76819;BME280;65772;51.096;17.006;2023-04-15T05:26:12;99128.23;;;13.10;55.82
76819;BME280;65772;51.096;17.006;2023-04-15T05:28:43;99123.44;;;13.10;56.29
76819;BME280;65772;51.096;17.006;2023-04-15T05:31:13;99118.98;;;13.09;56.24
76819;BME280;65772;51.096;17.006;2023-04-15T05:33:44;99126.35;;;13.08;56.00
76819;BME280;65772;51.096;17.006;2023-04-15T05:36:14;99135.25;;;13.08;56.10
76819;BME280;65772;51.096;17.006;2023-04-15T05:38:45;99142.10;;;13.07;56.21
76819;BME280;65772;51.096;17.006;2023-04-15T05:41:16;99144.49;;;13.05;56.06
76819;BME280;65772;51.096;17.006;2023-04-15T05:43:48;99146.55;;;13.03;56.06
76819;BME280;65772;51.096;17.006;2023-04-15T05:46:18;99146.57;;;13.02;56.35
76819;BME280;65772;51.096;17.006;2023-04-15T05:48:49;99147.25;;;13.00;56.38
76819;BME280;65772;51.096;17.006;2023-04-15T05:51:21;99151.02;;;13.00;56.29
76819;BME280;65772;51.096;17.006;2023-04-15T05:53:51;99154.96;;;12.99;56.35
76819;BME280;65772;51.096;17.006;2023-04-15T05:56:22;99162.83;;;12.98;55.56
76819;BME280;65772;51.096;17.006;2023-04-15T05:58:54;99161.80;;;12.95;55.19
76819;BME280;65772;51.096;17.006;2023-04-15T06:01:25;99162.65;;;12.93;55.10
76819;BME280;65772;51.096;17.006;2023-04-15T06:03:55;99162.66;;;12.92;55.03
76819;BME280;65772;51.096;17.006;2023-04-15T06:06:26;99163.52;;;12.90;54.91
76819;BME280;65772;51.096;17.006;2023-04-15T06:08:57;99167.45;;;12.88;54.72
76819;BME280;65772;51.096;17.006;2023-04-15T06:11:28;99172.76;;;12.87;54.37
76819;BME280;65772;51.096;17.006;2023-04-15T06:13:59;99182.86;;;12.86;54.34
76819;BME280;65772;51.096;17.006;2023-04-15T06:16:29;99183.71;;;12.84;54.35
76819;BME280;65772;51.096;17.006;2023-04-15T06:19:00;99179.77;;;12.83;54.50
76819;BME280;65772;51.096;17.006;2023-04-15T06:21:31;99181.31;;;12.82;54.03
76819;BME280;65772;51.096;17.006;2023-04-15T06:24:02;99185.07;;;12.83;54.40
76819;BME280;65772;51.096;17.006;2023-04-15T06:26:32;99189.02;;;12.84;54.12
76819;BME280;65772;51.096;17.006;2023-04-15T06:29:03;99189.36;;;12.84;53.85
76819;BME280;65772;51.096;17.006;2023-04-15T06:31:34;99191.42;;;12.84;53.79
76819;BME280;65772;51.096;17.006;2023-04-15T06:34:05;99196.89;;;12.84;53.91
76819;BME280;65772;51.096;17.006;2023-04-15T06:36:35;99198.44;;;12.83;53.88
76819;BME280;65772;51.096;17.006;2023-04-15T06:39:06;99199.30;;;12.84;53.77
76819;BME280;65772;51.096;17.006;2023-04-15T06:41:37;99199.13;;;12.86;53.73
76819;BME280;65772;51.096;17.006;2023-04-15T06:44:07;99198.79;;;12.87;53.77
76819;BME280;65772;51.096;17.006;2023-04-15T06:46:38;99198.11;;;12.88;53.81
76819;BME280;65772;51.096;17.006;2023-04-15T06:49:08;99197.77;;;12.88;53.53
76819;BME280;65772;51.096;17.006;2023-04-15T06:51:40;99202.05;;;12.87;53.73
76819;BME280;65772;51.096;17.006;2023-04-15T06:54:11;99204.63;;;12.89;53.64
76819;BME280;65772;51.096;17.006;2023-04-15T06:56:42;99209.09;;;12.91;53.53
76819;BME280;65772;51.096;17.006;2023-04-15T06:59:12;99209.59;;;12.93;53.20
76819;BME280;65772;51.096;17.006;2023-04-15T07:01:43;99210.95;;;12.95;53.28
76819;BME280;65772;51.096;17.006;2023-04-15T07:04:14;99207.02;;;12.96;53.39
76819;BME280;65772;51.096;17.006;2023-04-15T07:06:45;99213.88;;;12.96;53.01
76819;BME280;65772;51.096;17.006;2023-04-15T07:09:15;99219.52;;;12.95;52.90
76819;BME280;65772;51.096;17.006;2023-04-15T07:11:46;99223.98;;;12.94;52.60
76819;BME280;65772;51.096;17.006;2023-04-15T07:14:17;99225.88;;;12.92;52.52
76819;BME280;65772;51.096;17.006;2023-04-15T07:16:48;99227.94;;;12.92;52.56
76819;BME280;65772;51.096;17.006;2023-04-15T07:19:19;99222.96;;;12.91;52.77
76819;BME280;65772;51.096;17.006;2023-04-15T07:21:50;99222.96;;;12.91;52.83
76819;BME280;65772;51.096;17.006;2023-04-15T07:24:20;99227.08;;;12.91;52.88
76819;BME280;65772;51.096;17.006;2023-04-15T07:26:55;99226.39;;;12.91;52.87
76819;BME280;65772;51.096;17.006;2023-04-15T07:29:29;99229.82;;;12.92;52.92
76819;BME280;65772;51.096;17.006;2023-04-15T07:32:00;99235.29;;;12.92;52.95
76819;BME280;65772;51.096;17.006;2023-04-15T07:34:30;99237.52;;;12.92;52.51
76819;BME280;65772;51.096;17.006;2023-04-15T07:37:01;99240.09;;;12.93;52.33
76819;BME280;65772;51.096;17.006;2023-04-15T07:39:31;99244.36;;;12.94;52.22
76819;BME280;65772;51.096;17.006;2023-04-15T07:42:02;99247.27;;;12.94;52.00
76819;BME280;65772;51.096;17.006;2023-04-15T07:44:33;99245.38;;;12.94;51.87
76819;BME280;65772;51.096;17.006;2023-04-15T07:47:04;99243.52;;;12.95;51.95
76819;BME280;65772;51.096;17.006;2023-04-15T07:49:35;99244.88;;;12.95;51.74
76819;BME280;65772;51.096;17.006;2023-04-15T07:52:06;99247.10;;;12.95;51.82
76819;BME280;65772;51.096;17.006;2023-04-15T07:54:36;99251.21;;;12.96;51.80
76819;BME280;65772;51.096;17.006;2023-04-15T07:57:08;99249.86;;;12.96;51.57
76819;BME280;65772;51.096;17.006;2023-04-15T07:59:38;99249.67;;;12.97;51.40
76819;BME280;65772;51.096;17.006;2023-04-15T08:02:11;99248.14;;;12.98;51.48
76819;BME280;65772;51.096;17.006;2023-04-15T08:04:41;99247.46;;;12.99;51.67
76819;BME280;65772;51.096;17.006;2023-04-15T08:07:12;99255.52;;;12.99;51.45
76819;BME280;65772;51.096;17.006;2023-04-15T08:09:43;99254.33;;;13.00;51.33
76819;BME280;65772;51.096;17.006;2023-04-15T08:12:14;99256.04;;;13.00;51.63
76819;BME280;65772;51.096;17.006;2023-04-15T08:14:45;99258.27;;;13.00;51.31
76819;BME280;65772;51.096;17.006;2023-04-15T08:17:15;99261.35;;;13.02;51.52
76819;BME280;65772;51.096;17.006;2023-04-15T08:19:46;99265.98;;;13.04;51.26
76819;BME280;65772;51.096;17.006;2023-04-15T08:22:17;99272.14;;;13.06;51.32
76819;BME280;65772;51.096;17.006;2023-04-15T08:24:50;99278.50;;;13.10;51.16
76819;BME280;65772;51.096;17.006;2023-04-15T08:27:21;99278.52;;;13.13;51.32
76819;BME280;65772;51.096;17.006;2023-04-15T08:29:51;99280.58;;;13.15;51.00
76819;BME280;65772;51.096;17.006;2023-04-15T08:32:22;99286.77;;;13.18;51.22
76819;BME280;65772;51.096;17.006;2023-04-15T08:34:54;99284.05;;;13.23;51.61
76819;BME280;65772;51.096;17.006;2023-04-15T08:37:25;99285.91;;;13.28;51.69
76819;BME280;65772;51.096;17.006;2023-04-15T08:39:56;99284.23;;;13.34;51.61
76819;BME280;65772;51.096;17.006;2023-04-15T08:42:29;99288.16;;;13.38;51.46
76819;BME280;65772;51.096;17.006;2023-04-15T08:45:01;99291.60;;;13.41;51.51
76819;BME280;65772;51.096;17.006;2023-04-15T08:47:33;99296.58;;;13.43;51.70
76819;BME280;65772;51.096;17.006;2023-04-15T08:50:09;99288.84;;;13.46;51.40
76819;BME280;65772;51.096;17.006;2023-04-15T08:52:40;99288.85;;;13.49;51.42
76819;BME280;65772;51.096;17.006;2023-04-15T08:55:12;99297.77;;;13.52;51.30
76819;BME280;65772;51.096;17.006;2023-04-15T08:57:43;99303.61;;;13.54;51.25
76819;BME280;65772;51.096;17.006;2023-04-15T09:00:15;99309.77;;;13.58;51.26
76819;BME280;65772;51.096;17.006;2023-04-15T09:02:46;99309.95;;;13.63;51.40
76819;BME280;65772;51.096;17.006;2023-04-15T09:05:17;99312.69;;;13.67;51.43
76819;BME280;65772;51.096;17.006;2023-04-15T09:07:50;99307.38;;;13.71;51.56
76819;BME280;65772;51.096;17.006;2023-04-15T09:10:21;99309.10;;;13.75;51.50
76819;BME280;65772;51.096;17.006;2023-04-15T09:12:52;99307.54;;;13.79;50.86
76819;BME280;65772;51.096;17.006;2023-04-15T09:15:25;99306.69;;;13.81;50.70
76819;BME280;65772;51.096;17.006;2023-04-15T09:17:57;99305.50;;;13.84;50.78
76819;BME280;65772;51.096;17.006;2023-04-15T09:20:28;99304.64;;;13.85;50.38
76819;BME280;65772;51.096;17.006;2023-04-15T09:22:59;99305.33;;;13.85;50.23
76819;BME280;65772;51.096;17.006;2023-04-15T09:25:30;99304.12;;;13.86;50.31
76819;BME280;65772;51.096;17.006;2023-04-15T09:28:03;99308.75;;;13.86;50.70
76819;BME280;65772;51.096;17.006;2023-04-15T09:30:34;99310.63;;;13.88;51.03
76819;BME280;65772;51.096;17.006;2023-04-15T09:33:06;99316.11;;;13.91;50.63
76819;BME280;65772;51.096;17.006;2023-04-15T09:35:39;99315.09;;;13.93;50.43
76819;BME280;65772;51.096;17.006;2023-04-15T09:38:10;99317.84;;;13.94;50.47
76819;BME280;65772;51.096;17.006;2023-04-15T09:40:41;99315.77;;;13.95;50.48
76819;BME280;65772;51.096;17.006;2023-04-15T09:43:12;99318.52;;;13.97;50.63
76819;BME280;65772;51.096;17.006;2023-04-15T09:45:48;99320.59;;;13.98;50.17
76819;BME280;65772;51.096;17.006;2023-04-15T09:48:21;99318.16;;;13.99;50.10
76819;BME280;65772;51.096;17.006;2023-04-15T09:50:51;99320.56;;;14.02;49.86
76819;BME280;65772;51.096;17.006;2023-04-15T09:53:24;99321.94;;;14.03;49.73
76819;BME280;65772;51.096;17.006;2023-04-15T09:55:56;99328.97;;;14.04;49.88
76819;BME280;65772;51.096;17.006;2023-04-15T09:58:28;99333.96;;;14.06;49.80
76819;BME280;65772;51.096;17.006;2023-04-15T10:01:01;99333.62;;;14.08;49.83
76819;BME280;65772;51.096;17.006;2023-04-15T10:03:34;99334.12;;;14.09;50.08
76819;BME280;65772;51.096;17.006;2023-04-15T10:06:06;99333.77;;;14.12;50.24
76819;BME280;65772;51.096;17.006;2023-04-15T10:08:37;99334.80;;;14.14;50.05
76819;BME280;65772;51.096;17.006;2023-04-15T10:11:10;99331.38;;;14.16;49.57
76819;BME280;65772;51.096;17.006;2023-04-15T10:13:42;99331.20;;;14.16;48.87
76819;BME280;65772;51.096;17.006;2023-04-15T10:16:16;99329.31;;;14.16;48.74
76819;BME280;65772;51.096;17.006;2023-04-15T10:18:55;99337.20;;;14.16;48.69
76819;BME280;65772;51.096;17.006;2023-04-15T10:21:28;99339.77;;;14.17;48.61
76819;BME280;65772;51.096;17.006;2023-04-15T10:24:02;99332.91;;;14.18;48.47
76819;BME280;65772;51.096;17.006;2023-04-15T10:26:33;99327.60;;;14.19;48.19
76819;BME280;65772;51.096;17.006;2023-04-15T10:29:04;99331.52;;;14.20;48.38
76819;BME280;65772;51.096;17.006;2023-04-15T10:31:35;99333.92;;;14.21;48.55
76819;BME280;65772;51.096;17.006;2023-04-15T10:34:07;99336.16;;;14.24;48.57
76819;BME280;65772;51.096;17.006;2023-04-15T10:36:38;99332.20;;;14.26;48.04
76819;BME280;65772;51.096;17.006;2023-04-15T10:39:39;99327.58;;;14.28;47.95
76819;BME280;65772;51.096;17.006;2023-04-15T10:42:12;99328.10;;;14.29;48.11
76819;BME280;65772;51.096;17.006;2023-04-15T10:44:44;99329.77;;;14.31;47.80
76819;BME280;65772;51.096;17.006;2023-04-15T10:47:19;99331.66;;;14.32;47.80
76819;BME280;65772;51.096;17.006;2023-04-15T10:49:54;99334.93;;;14.34;47.79
76819;BME280;65772;51.096;17.006;2023-04-15T10:52:27;99337.34;;;14.35;47.46
76819;BME280;65772;51.096;17.006;2023-04-15T10:55:13;99343.17;;;14.36;47.56
76819;BME280;65772;51.096;17.006;2023-04-15T10:57:45;99344.38;;;14.38;47.71
76819;BME280;65772;51.096;17.006;2023-04-15T11:00:17;99344.05;;;14.40;47.77
76819;BME280;65772;51.096;17.006;2023-04-15T11:02:47;99349.02;;;14.43;47.87
76819;BME280;65772;51.096;17.006;2023-04-15T11:05:19;99348.67;;;14.45;47.44
76819;BME280;65772;51.096;17.006;2023-04-15T11:07:52;99353.65;;;14.48;47.54
76819;BME280;65772;51.096;17.006;2023-04-15T11:10:52;99348.67;;;14.49;47.33
76819;BME280;65772;51.096;17.006;2023-04-15T11:13:27;99357.77;;;14.52;47.24
76819;BME280;65772;51.096;17.006;2023-04-15T11:16:00;99360.50;;;14.53;47.20
76819;BME280;65772;51.096;17.006;2023-04-15T11:18:33;99358.95;;;14.56;47.25
76819;BME280;65772;51.096;17.006;2023-04-15T11:21:05;99365.31;;;14.58;47.25
76819;BME280;65772;51.096;17.006;2023-04-15T11:23:39;99364.27;;;14.58;46.97
76819;BME280;65772;51.096;17.006;2023-04-15T11:26:12;99364.11;;;14.60;46.78
76819;BME280;65772;51.096;17.006;2023-04-15T11:28:45;99367.36;;;14.61;47.22
76819;BME280;65772;51.096;17.006;2023-04-15T11:31:16;99370.77;;;14.65;47.26
76819;BME280;65772;51.096;17.006;2023-04-15T11:33:56;99372.49;;;14.67;47.11
76819;BME280;65772;51.096;17.006;2023-04-15T11:36:28;99374.04;;;14.69;46.96
76819;BME280;65772;51.096;17.006;2023-04-15T11:39:00;99373.52;;;14.71;47.20
76819;BME280;65772;51.096;17.006;2023-04-15T11:41:31;99371.77;;;14.73;47.54
76819;BME280;65772;51.096;17.006;2023-04-15T11:44:01;99371.94;;;14.77;47.80
76819;BME280;65772;51.096;17.006;2023-04-15T11:46:32;99370.05;;;14.80;47.77
76819;BME280;65772;51.096;17.006;2023-04-15T11:49:03;99371.05;;;14.85;48.20
76819;BME280;65772;51.096;17.006;2023-04-15T11:51:34;99373.63;;;14.90;47.80
76819;BME280;65772;51.096;17.006;2023-04-15T11:54:05;99374.45;;;14.94;47.23
76819;BME280;65772;51.096;17.006;2023-04-15T11:56:36;99379.77;;;14.97;47.00
76819;BME280;65772;51.096;17.006;2023-04-15T11:59:07;99378.39;;;15.00;46.76
76819;BME280;65772;51.096;17.006;2023-04-15T12:01:40;99379.08;;;15.03;47.02
76819;BME280;65772;51.096;17.006;2023-04-15T12:04:16;99376.80;;;15.07;47.08
76819;BME280;65772;51.096;17.006;2023-04-15T12:06:53;99380.91;;;15.11;47.33
76819;BME280;65772;51.096;17.006;2023-04-15T12:09:24;99381.09;;;15.15;47.00
76819;BME280;65772;51.096;17.006;2023-04-15T12:11:57;99379.16;;;15.18;46.49
76819;BME280;65772;51.096;17.006;2023-04-15T12:14:29;99384.48;;;15.22;46.33
76819;BME280;65772;51.096;17.006;2023-04-15T12:17:01;99386.16;;;15.26;46.23
76819;BME280;65772;51.096;17.006;2023-04-15T12:19:36;99388.73;;;15.29;45.76
76819;BME280;65772;51.096;17.006;2023-04-15T12:22:09;99392.34;;;15.32;45.84
76819;BME280;65772;51.096;17.006;2023-04-15T12:24:40;99395.95;;;15.34;45.68
76819;BME280;65772;51.096;17.006;2023-04-15T12:27:14;99394.02;;;15.36;45.34
76819;BME280;65772;51.096;17.006;2023-04-15T12:29:45;99396.94;;;15.38;45.16
76819;BME280;65772;51.096;17.006;2023-04-15T12:32:16;99389.19;;;15.40;44.98
76819;BME280;65772;51.096;17.006;2023-04-15T12:34:52;99393.66;;;15.42;45.17
76819;BME280;65772;51.096;17.006;2023-04-15T12:37:23;99391.24;;;15.43;44.73
76819;BME280;65772;51.096;17.006;2023-04-15T12:39:54;99392.80;;;15.44;44.39
76819;BME280;65772;51.096;17.006;2023-04-15T12:42:24;99395.20;;;15.44;44.36
76819;BME280;65772;51.096;17.006;2023-04-15T12:48:27;99396.39;;;15.47;44.03
76819;BME280;65772;51.096;17.006;2023-04-15T12:50:57;99397.05;;;15.48;44.19
76819;BME280;65772;51.096;17.006;2023-04-15T12:53:28;99398.24;;;15.49;44.07
76819;BME280;65772;51.096;17.006;2023-04-15T12:56:00;99398.25;;;15.49;43.92
76819;BME280;65772;51.096;17.006;2023-04-15T12:58:30;99399.97;;;15.50;44.00
76819;BME280;65772;51.096;17.006;2023-04-15T13:01:01;99400.14;;;15.50;44.05
76819;BME280;65772;51.096;17.006;2023-04-15T13:03:32;99398.25;;;15.51;44.03
76819;BME280;65772;51.096;17.006;2023-04-15T13:06:03;99399.28;;;15.51;44.08
76819;BME280;65772;51.096;17.006;2023-04-15T13:08:34;99399.96;;;15.52;43.93
76819;BME280;65772;51.096;17.006;2023-04-15T13:11:08;99399.80;;;15.51;43.54
76819;BME280;65772;51.096;17.006;2023-04-15T13:13:39;99399.62;;;15.51;44.29
76819;BME280;65772;51.096;17.006;2023-04-15T13:16:10;99399.28;;;15.51;44.58